Nikko Maru No.6 — JJ3817 — position and weather

sailwx.info

Track history (hours):
 
Tides and Currents Weather Stations Pressure Air Temp Water Temp Dewpoint Dewpoint Depression Visibility Wind Speed Wind Dir Waves Ship Positions

Nikko Maru No.6

Last reported at 2018-Apr-20 21:59 UTC. Time now 2018-Apr-20 22:06 UTC.
Position N 35°35' E 139°54'.

Length 57 m; draft 2.8 m.

Type: Tanker. MMSI: 431400324.

Date/timePositionNaut miles runAvg speedWind from/ knotsBaromVisibWave heightAir tempDewpointWater temp
2018-Apr-20 21:59N 35°35' E 139°54'0 0.0
2018-Apr-20 21:30N 35°35' E 139°54'0 0.0
2018-Apr-20 21:00N 35°35' E 139°54'0 0.0
2018-Apr-20 20:30N 35°35' E 139°54'0 0.0
2018-Apr-20 20:00N 35°35' E 139°54'0 0.0
2018-Apr-20 19:30N 35°35' E 139°54'0 0.1
2018-Apr-20 18:59N 35°35' E 139°54'0 0.1
2018-Apr-20 18:29N 35°35' E 139°54'0 0.0
2018-Apr-20 18:00N 35°35' E 139°54'0 0.0
2018-Apr-20 17:28N 35°35' E 139°54'0 0.0
2018-Apr-20 17:00N 35°35' E 139°54'0 0.0
2018-Apr-20 16:31N 35°35' E 139°54'0 0.0
2018-Apr-20 16:00N 35°35' E 139°54'0 0.0
2018-Apr-20 15:30N 35°35' E 139°54'0 0.0
2018-Apr-20 15:00N 35°35' E 139°54'0 0.0
2018-Apr-20 14:30N 35°35' E 139°54'0 0.0
2018-Apr-20 14:01N 35°35' E 139°54'0 0.0
2018-Apr-20 13:28N 35°35' E 139°54'0 0.0
2018-Apr-20 12:59N 35°35' E 139°54'0 0.0
2018-Apr-20 12:30N 35°35' E 139°54'0 0.0
2018-Apr-20 12:00N 35°35' E 139°54'0 0.0
2018-Apr-20 11:29N 35°35' E 139°54'0 0.0
2018-Apr-20 11:00N 35°35' E 139°54'0 0.0
2018-Apr-20 10:30N 35°35' E 139°54'2 3.5
2018-Apr-20 10:00N 35°33' E 139°54'611.6
2018-Apr-20 09:30N 35°30' E 139°48'2 4.7
2018-Apr-20 09:00N 35°32' E 139°46'0 0.0
2018-Apr-20 08:30N 35°32' E 139°46'0 0.0
2018-Apr-20 08:00N 35°32' E 139°46'0 0.0
2018-Apr-20 07:30N 35°32' E 139°46'0 0.0
2018-Apr-20 06:58N 35°32' E 139°46'0 0.0
2018-Apr-20 06:30N 35°32' E 139°46'0 0.1
2018-Apr-20 06:00N 35°32' E 139°46'4 7.2
2018-Apr-20 05:31N 35°29' E 139°49'0 0.2
2018-Apr-20 04:57N 35°29' E 139°49'0 0.0
2018-Apr-20 04:29N 35°29' E 139°49'0 0.0
2018-Apr-20 03:57N 35°29' E 139°49'0 0.0
2018-Apr-20 03:29N 35°29' E 139°49'0 0.0
2018-Apr-20 02:59N 35°29' E 139°49'0 0.0
2018-Apr-20 02:26N 35°29' E 139°49'1 2.0
2018-Apr-20 02:01N 35°28' E 139°48'510.8
2018-Apr-20 01:30N 35°23' E 139°46'510.0
2018-Apr-20 01:00N 35°18' E 139°44'5 9.7
2018-Apr-20 00:30N 35°14' E 139°47'510.3
2018-Apr-20 00:00N 35°09' E 139°46'5 9.6
2018-Apr-19 23:30N 35°06' E 139°42'510.8
2018-Apr-19 23:01N 35°02' E 139°37'611.4
2018-Apr-19 22:30N 34°58' E 139°32'612.4
2018-Apr-19 22:00N 34°54' E 139°26'712.0
2018-Apr-19 21:26N 34°50' E 139°20'511.6
2018-Apr-19 20:59N 34°47' E 139°15'711.6
2018-Apr-19 20:22N 34°42' E 139°08'411.6
2018-Apr-19 20:00N 34°40' E 139°04'611.3
2018-Apr-19 19:27N 34°36' E 138°58'611.7
2018-Apr-19 18:58N 34°34' E 138°51'611.9
2018-Apr-19 18:30N 34°33' E 138°44'611.9
2018-Apr-19 17:58N 34°32' E 138°37'7011.6
2018-Apr-19 11:57N 34°32' E 137°13'611.4
2018-Apr-19 11:25N 34°32' E 137°05'510.4
2018-Apr-19 10:58N 34°34' E 136°60'510.7
2018-Apr-19 10:30N 34°37' E 136°55'510.6
2018-Apr-19 10:01N 34°40' E 136°50'611.1
2018-Apr-19 09:30N 34°45' E 136°47'510.9
2018-Apr-19 09:00N 34°50' E 136°44'510.8
2018-Apr-19 08:30N 34°55' E 136°42'4 7.5
2018-Apr-19 08:00N 34°58' E 136°39'0 0.1
2018-Apr-19 07:31N 34°58' E 136°39'0 0.1
2018-Apr-19 07:01N 34°58' E 136°39'0 0.1
2018-Apr-19 06:30N 34°58' E 136°39'0 0.0
2018-Apr-19 06:00N 34°58' E 136°39'0 0.0
2018-Apr-19 05:31N 34°58' E 136°39'0 0.0
2018-Apr-19 05:01N 34°58' E 136°39'0 0.1
2018-Apr-19 04:31N 34°58' E 136°39'5 9.9
2018-Apr-19 03:59N 34°54' E 136°43'612.0
2018-Apr-19 03:31N 34°49' E 136°46'611.6
2018-Apr-19 03:00N 34°44' E 136°50'1011.1
2018-Apr-19 02:08N 34°36' E 136°57'210.9
2018-Apr-19 01:58N 34°35' E 136°59'10 9.9
2018-Apr-19 00:57N 34°32' E 137°10'4911.8
2018-Apr-18 20:50N 34°33' E 138°09'412.2
2018-Apr-18 20:29N 34°33' E 138°15'611.9
2018-Apr-18 19:57N 34°34' E 138°22'911.5
2018-Apr-18 19:09N 34°35' E 138°33'211.8
2018-Apr-18 18:59N 34°35' E 138°36'611.8
2018-Apr-18 18:29N 34°35' E 138°43'611.9
2018-Apr-18 18:00N 34°35' E 138°50'611.3
2018-Apr-18 17:28N 34°37' E 138°57'511.8
2018-Apr-18 17:00N 34°41' E 139°01'711.9
2018-Apr-18 16:23N 34°47' E 139°06'512.6
2018-Apr-18 15:58N 34°51' E 139°10'712.2
2018-Apr-18 15:26N 34°56' E 139°15'511.4
2018-Apr-18 15:00N 34°59' E 139°20'611.3
2018-Apr-18 14:29N 35°01' E 139°27'511.2
2018-Apr-18 14:00N 35°04' E 139°32'612.0
2018-Apr-18 13:31N 35°06' E 139°39'611.5
2018-Apr-18 13:00N 35°10' E 139°44'611.8
2018-Apr-18 12:30N 35°16' E 139°46'612.2
2018-Apr-18 12:00N 35°21' E 139°42'611.4
2018-Apr-18 11:30N 35°26' E 139°45'612.3
2018-Apr-18 11:00N 35°30' E 139°51'612.2
2018-Apr-18 10:30N 35°35' E 139°56'5 9.7
2018-Apr-18 10:00N 35°40' E 139°57'1 1.9
2018-Apr-18 09:26N 35°40' E 139°56'0 0.0
2018-Apr-18 08:33N 35°40' E 139°56'0 0.0
2018-Apr-18 08:18N 35°40' E 139°56'0 0.0
2018-Apr-18 06:52N 35°40' E 139°56'0 0.0
2018-Apr-18 06:23N 35°40' E 139°56'0 0.0
2018-Apr-18 05:54N 35°40' E 139°56'0 0.7
2018-Apr-18 05:30N 35°40' E 139°57'510.0
2018-Apr-18 05:00N 35°36' E 139°58'611.1
2018-Apr-18 04:30N 35°30' E 139°60'3 5.1
2018-Apr-18 04:01N 35°28' E 140°01'0 0.0
2018-Apr-18 03:29N 35°28' E 140°01'0 0.0
2018-Apr-18 03:00N 35°28' E 140°01'0 0.0
2018-Apr-18 02:30N 35°28' E 140°01'0 0.0
2018-Apr-18 02:01N 35°28' E 140°01'0 0.0
2018-Apr-18 01:30N 35°28' E 140°01'0 0.0
2018-Apr-18 01:01N 35°28' E 140°01'0 0.0
2018-Apr-18 00:30N 35°28' E 140°01'0 0.0
2018-Apr-18 00:01N 35°28' E 140°01'0 0.0
2018-Apr-17 23:30N 35°28' E 140°01'0 0.0
2018-Apr-17 23:01N 35°28' E 140°01'2 4.0
2018-Apr-17 22:31N 35°29' E 139°59'1 2.8
2018-Apr-17 22:00N 35°31' E 139°59'511.0
2018-Apr-17 21:31N 35°36' E 139°59'4 6.8
2018-Apr-17 20:52N 35°41' E 139°59'0 0.0
2018-Apr-17 20:30N 35°41' E 139°59'0 0.0
2018-Apr-17 19:58N 35°41' E 139°59'0 0.0
2018-Apr-17 19:25N 35°41' E 139°59'0 0.0
2018-Apr-17 19:00N 35°41' E 139°59'0 0.0
2018-Apr-17 18:25N 35°41' E 139°59'0 0.0
2018-Apr-17 17:59N 35°41' E 139°59'0 0.0
2018-Apr-17 17:29N 35°41' E 139°59'0 0.0
2018-Apr-17 17:00N 35°41' E 139°59'0 0.0
2018-Apr-17 16:30N 35°41' E 139°59'0 0.0
2018-Apr-17 15:57N 35°41' E 139°59'0 0.0
2018-Apr-17 15:30N 35°41' E 139°59'0 0.0
2018-Apr-17 15:00N 35°41' E 139°59'0 0.0
2018-Apr-17 14:30N 35°41' E 139°59'0 0.0
2018-Apr-17 13:59N 35°41' E 139°59'0 0.0
2018-Apr-17 13:30N 35°41' E 139°59'0 0.0
2018-Apr-17 13:00N 35°41' E 139°59'0 0.0
2018-Apr-17 12:30N 35°41' E 139°59'0 0.0
2018-Apr-17 11:59N 35°41' E 139°59'0 0.0
2018-Apr-17 11:29N 35°41' E 139°59'0 0.0
2018-Apr-17 10:58N 35°41' E 139°59'0 0.0
2018-Apr-17 10:21N 35°41' E 139°59'0 0.0
2018-Apr-17 09:30N 35°41' E 139°59'0 0.0
2018-Apr-17 09:00N 35°41' E 139°59'0 0.0
2018-Apr-17 08:30N 35°41' E 139°59'0 0.0
2018-Apr-17 07:39N 35°41' E 139°59'0 0.0
2018-Apr-17 07:30N 35°41' E 139°59'4 7.3
2018-Apr-17 07:00N 35°37' E 139°59'4 8.6
2018-Apr-17 06:30N 35°34' E 140°03'4 7.1
2018-Apr-17 06:00N 35°33' E 140°07'0 0.0
2018-Apr-17 05:30N 35°33' E 140°07'0 0.0
2018-Apr-17 05:00N 35°33' E 140°07'0 0.0
2018-Apr-17 04:30N 35°33' E 140°07'0 0.0
2018-Apr-17 04:00N 35°33' E 140°07'2 3.3
2018-Apr-17 03:31N 35°33' E 140°05'0 0.0
2018-Apr-17 03:00N 35°33' E 140°05'0 0.0
2018-Apr-17 02:30N 35°33' E 140°05'0 0.0
2018-Apr-17 02:00N 35°33' E 140°05'0 0.0
2018-Apr-17 01:30N 35°33' E 140°05'0 0.0
2018-Apr-17 01:00N 35°33' E 140°05'0 0.0
2018-Apr-17 00:30N 35°33' E 140°05'0 0.0
2018-Apr-17 00:00N 35°33' E 140°05'0 0.0
2018-Apr-16 23:30N 35°33' E 140°05'0 0.0
2018-Apr-16 22:57N 35°33' E 140°05'0 0.0
2018-Apr-16 22:30N 35°33' E 140°05'0 0.0
2018-Apr-16 22:00N 35°33' E 140°05'0 0.0
2018-Apr-16 21:30N 35°33' E 140°05'0 0.0
2018-Apr-16 20:57N 35°33' E 140°05'0 0.0
2018-Apr-16 20:30N 35°33' E 140°05'0 0.0
2018-Apr-16 20:00N 35°33' E 140°05'0 0.0
2018-Apr-16 19:27N 35°33' E 140°05'0 0.0
2018-Apr-16 19:00N 35°33' E 140°05'0 0.0
2018-Apr-16 18:30N 35°33' E 140°05'3 5.8
2018-Apr-16 18:00N 35°33' E 140°01'611.4
2018-Apr-16 17:30N 35°30' E 139°56'611.5
2018-Apr-16 17:00N 35°27' E 139°49'611.3
2018-Apr-16 16:30N 35°22' E 139°45'511.0
2018-Apr-16 16:00N 35°17' E 139°46'510.9
2018-Apr-16 15:30N 35°11' E 139°47'611.3
2018-Apr-16 15:00N 35°06' E 139°45'611.3
2018-Apr-16 14:30N 35°02' E 139°39'611.4
2018-Apr-16 14:00N 34°59' E 139°34'612.1
2018-Apr-16 13:29N 34°55' E 139°28'712.5
2018-Apr-16 12:57N 34°51' E 139°21'612.4
2018-Apr-16 12:29N 34°47' E 139°16'611.9
2018-Apr-16 12:00N 34°43' E 139°11'611.5
2018-Apr-16 11:30N 34°40' E 139°05'611.1
2018-Apr-16 11:00N 34°37' E 138°59'611.0
2018-Apr-16 10:26N 34°35' E 138°52'611.5
2018-Apr-16 09:56N 34°34' E 138°45'511.3
2018-Apr-16 09:28N 34°34' E 138°39'18210.0
2018-Apr-15 15:12N 33°49' E 135°06'312.0
2018-Apr-15 14:56N 33°51' E 135°03'512.1
2018-Apr-15 14:30N 33°56' E 135°02'612.0
2018-Apr-15 14:00N 34°02' E 135°02'611.8
2018-Apr-15 13:30N 34°08' E 135°02'611.8
2018-Apr-15 13:00N 34°14' E 135°03'611.8
2018-Apr-15 12:30N 34°20' E 135°05'4 7.7
2018-Apr-15 12:00N 34°21' E 135°09'0 0.0
2018-Apr-15 11:29N 34°21' E 135°09'0 0.0
2018-Apr-15 10:59N 34°21' E 135°09'0 0.0
2018-Apr-15 10:29N 34°21' E 135°09'0 0.0
2018-Apr-15 09:59N 34°21' E 135°09'0 0.1
2018-Apr-15 09:29N 34°21' E 135°09'0 0.0
2018-Apr-15 08:59N 34°21' E 135°09'0 0.0
2018-Apr-15 08:29N 34°21' E 135°09'0 0.1
2018-Apr-15 07:59N 34°21' E 135°09'0 0.0
2018-Apr-15 07:29N 34°21' E 135°09'0 0.0
2018-Apr-15 06:59N 34°21' E 135°09'0 0.0
2018-Apr-15 06:29N 34°21' E 135°09'0 0.0
2018-Apr-15 05:59N 34°21' E 135°09'0 0.0
2018-Apr-15 05:29N 34°21' E 135°09'0 0.0
2018-Apr-15 04:59N 34°21' E 135°09'0 0.0
2018-Apr-15 04:29N 34°21' E 135°09'0 0.0
2018-Apr-15 03:59N 34°21' E 135°09'0 0.0
2018-Apr-15 03:29N 34°21' E 135°09'0 0.0
2018-Apr-15 02:59N 34°21' E 135°09'0 0.0
2018-Apr-15 02:29N 34°21' E 135°09'0 0.1
2018-Apr-15 01:59N 34°21' E 135°09'0 0.0
2018-Apr-15 01:29N 34°21' E 135°09'0 0.0
2018-Apr-15 00:59N 34°21' E 135°09'0 0.0
2018-Apr-15 00:29N 34°21' E 135°09'0 0.0
2018-Apr-14 23:59N 34°21' E 135°09'0 0.0
2018-Apr-14 23:29N 34°21' E 135°09'0 0.0
2018-Apr-14 22:59N 34°21' E 135°09'0 0.0
2018-Apr-14 22:29N 34°21' E 135°09'0 0.0
2018-Apr-14 21:59N 34°21' E 135°09'0 0.0
2018-Apr-14 21:29N 34°21' E 135°09'0 0.0
2018-Apr-14 20:59N 34°21' E 135°09'0 0.0
2018-Apr-14 20:29N 34°21' E 135°09'0 0.0
2018-Apr-14 19:59N 34°21' E 135°09'0 0.0
2018-Apr-14 19:29N 34°21' E 135°09'0 0.0
2018-Apr-14 18:59N 34°21' E 135°09'0 0.0
2018-Apr-14 18:29N 34°21' E 135°09'0 0.0
2018-Apr-14 17:59N 34°22' E 135°09'0 0.1
2018-Apr-14 17:29N 34°22' E 135°09'0 0.0
2018-Apr-14 16:59N 34°22' E 135°09'0 0.0
2018-Apr-14 16:30N 34°22' E 135°09'0 0.0
2018-Apr-14 15:57N 34°22' E 135°09'0 0.0
2018-Apr-14 15:30N 34°22' E 135°09'0 0.0
2018-Apr-14 14:59N 34°21' E 135°09'0 0.0
2018-Apr-14 14:29N 34°21' E 135°09'0 0.0
2018-Apr-14 13:59N 34°21' E 135°09'0 0.0
2018-Apr-14 13:29N 34°21' E 135°09'0 0.0
2018-Apr-14 12:59N 34°21' E 135°09'0 0.1
2018-Apr-14 12:29N 34°21' E 135°09'0 0.0
2018-Apr-14 11:59N 34°21' E 135°09'0 0.1
2018-Apr-14 11:29N 34°21' E 135°09'0 0.0
2018-Apr-14 10:59N 34°21' E 135°09'0 0.0
2018-Apr-14 10:29N 34°21' E 135°09'0 0.0
2018-Apr-14 09:59N 34°21' E 135°09'0 0.0
2018-Apr-14 09:29N 34°21' E 135°09'0 0.0
2018-Apr-14 08:59N 34°21' E 135°09'0 0.0
2018-Apr-14 08:29N 34°21' E 135°09'0 0.0
2018-Apr-14 07:59N 34°21' E 135°09'0 0.0
2018-Apr-14 07:29N 34°21' E 135°09'0 0.0
2018-Apr-14 06:59N 34°21' E 135°09'0 0.0
2018-Apr-14 06:29N 34°21' E 135°09'0 0.1
2018-Apr-14 05:59N 34°21' E 135°09'0 0.0
2018-Apr-14 05:29N 34°21' E 135°09'0 0.0
2018-Apr-14 04:59N 34°21' E 135°09'0 0.0
2018-Apr-14 04:29N 34°21' E 135°09'0 0.1
2018-Apr-14 03:59N 34°21' E 135°09'0 0.0
2018-Apr-14 03:29N 34°21' E 135°09'0 0.1
2018-Apr-14 02:59N 34°21' E 135°09'0 0.9
2018-Apr-14 02:30N 34°22' E 135°09'611.7
2018-Apr-14 02:01N 34°27' E 135°12'611.9
2018-Apr-14 01:30N 34°31' E 135°18'611.5
2018-Apr-14 01:00N 34°33' E 135°24'1 1.1
2018-Apr-14 00:30N 34°34' E 135°25'0 0.0
2018-Apr-14 00:00N 34°34' E 135°25'0 0.6
2018-Apr-13 23:30N 34°33' E 135°25'3 5.2
2018-Apr-13 23:00N 34°33' E 135°22'0 0.2
2018-Apr-13 22:30N 34°32' E 135°22'0 0.0
2018-Apr-13 22:00N 34°32' E 135°22'0 0.0
2018-Apr-13 21:30N 34°32' E 135°22'0 0.0
2018-Apr-13 21:00N 34°32' E 135°22'0 0.0
2018-Apr-13 20:30N 34°33' E 135°22'0 0.0
2018-Apr-13 20:00N 34°33' E 135°22'0 0.0
2018-Apr-13 19:30N 34°32' E 135°22'0 0.0
2018-Apr-13 19:00N 34°32' E 135°22'0 0.0
2018-Apr-13 18:30N 34°32' E 135°22'0 0.0
2018-Apr-13 18:00N 34°32' E 135°22'1 3.0
2018-Apr-13 17:30N 34°33' E 135°20'611.1
2018-Apr-13 17:00N 34°34' E 135°13'611.6
2018-Apr-13 16:30N 34°34' E 135°06'1312.7
2018-Apr-13 15:30N 34°34' E 134°51'612.1
2018-Apr-13 15:00N 34°31' E 134°44'611.5
2018-Apr-13 14:30N 34°29' E 134°38'611.3
2018-Apr-13 14:00N 34°27' E 134°31'511.0
2018-Apr-13 13:30N 34°25' E 134°25'611.2
2018-Apr-13 12:59N 34°24' E 134°18'8210.0
2018-Apr-13 04:49N 34°06' E 132°42'310.3
2018-Apr-13 04:30N 34°04' E 132°38'1810.0
2018-Apr-13 02:42N 34°11' E 132°18'211.3
2018-Apr-13 02:30N 34°12' E 132°16'1 2.2
2018-Apr-13 01:56N 34°13' E 132°15'0 0.0
2018-Apr-13 01:29N 34°13' E 132°15'0 0.0
2018-Apr-13 00:59N 34°13' E 132°15'0 0.0
2018-Apr-13 00:29N 34°13' E 132°15'0 0.0
2018-Apr-12 23:59N 34°13' E 132°15'0 0.0
2018-Apr-12 23:29N 34°13' E 132°15'0 0.0
2018-Apr-12 22:56N 34°13' E 132°15'0 0.4
2018-Apr-12 22:30N 34°13' E 132°15'0 0.3
2018-Apr-12 21:58N 34°13' E 132°15'0 0.0
2018-Apr-12 21:30N 34°13' E 132°15'0 0.0
2018-Apr-12 20:58N 34°13' E 132°15'0 0.0
2018-Apr-12 20:28N 34°13' E 132°15'0 0.0
2018-Apr-12 19:58N 34°13' E 132°15'0 0.0
2018-Apr-12 19:25N 34°13' E 132°15'0 0.0
2018-Apr-12 19:01N 34°13' E 132°15'0 0.0
2018-Apr-12 18:31N 34°13' E 132°15'0 0.0
2018-Apr-12 17:58N 34°13' E 132°15'0 0.0
2018-Apr-12 17:27N 34°13' E 132°15'0 0.0
2018-Apr-12 16:58N 34°13' E 132°15'0 0.0
2018-Apr-12 16:28N 34°13' E 132°15'0 0.0
2018-Apr-12 15:58N 34°13' E 132°15'0 0.0
2018-Apr-12 15:31N 34°13' E 132°15'0 0.0
2018-Apr-12 15:00N 34°13' E 132°15'0 0.0
2018-Apr-12 14:31N 34°13' E 132°15'0 0.0
2018-Apr-12 13:58N 34°13' E 132°15'0 0.0
2018-Apr-12 13:30N 34°13' E 132°15'0 0.0
2018-Apr-12 13:01N 34°13' E 132°15'0 0.0
2018-Apr-12 12:28N 34°13' E 132°15'0 0.0
2018-Apr-12 12:01N 34°13' E 132°15'0 0.0
2018-Apr-12 11:27N 34°13' E 132°15'0 0.0
2018-Apr-12 10:57N 34°13' E 132°15'0 0.0
2018-Apr-12 10:27N 34°13' E 132°15'0 0.0
2018-Apr-12 09:39N 34°13' E 132°15'0 0.0
2018-Apr-12 09:27N 34°13' E 132°15'0 0.0
2018-Apr-12 08:52N 34°13' E 132°15'0 0.0
2018-Apr-12 08:28N 34°13' E 132°15'0 0.0
2018-Apr-12 07:58N 34°13' E 132°15'0 0.0
2018-Apr-12 07:27N 34°13' E 132°15'0 0.0
2018-Apr-12 06:57N 34°13' E 132°15'0 0.0
2018-Apr-12 06:28N 34°13' E 132°15'0 0.0
2018-Apr-12 05:58N 34°13' E 132°15'0 0.0
2018-Apr-12 05:31N 34°13' E 132°15'0 0.0
2018-Apr-12 04:57N 34°13' E 132°15'0 0.0
2018-Apr-12 04:27N 34°13' E 132°15'0 0.0
2018-Apr-12 03:51N 34°13' E 132°15'0 0.0
2018-Apr-12 03:27N 34°13' E 132°15'0 0.6
2018-Apr-12 03:00N 34°13' E 132°15'0 0.0
2018-Apr-12 02:30N 34°13' E 132°15'0 0.0
2018-Apr-12 02:00N 34°13' E 132°15'0 0.1
2018-Apr-12 01:30N 34°13' E 132°15'1 2.2
2018-Apr-12 01:00N 34°14' E 132°14'0 0.0
2018-Apr-12 00:25N 34°14' E 132°14'0 0.0
2018-Apr-11 23:54N 34°14' E 132°14'0 0.0
2018-Apr-11 23:30N 34°14' E 132°14'0 0.0
2018-Apr-11 23:00N 34°14' E 132°14'0 1.0
2018-Apr-11 22:30N 34°14' E 132°14'0 0.0
2018-Apr-11 22:01N 34°14' E 132°14'0 0.0
2018-Apr-11 21:31N 34°14' E 132°14'0 0.0
2018-Apr-11 21:00N 34°14' E 132°14'0 0.0
2018-Apr-11 20:30N 34°14' E 132°14'0 0.0
2018-Apr-11 20:00N 34°14' E 132°14'0 0.0
2018-Apr-11 19:30N 34°14' E 132°14'0 0.0
2018-Apr-11 19:00N 34°14' E 132°14'0 0.0
2018-Apr-11 18:30N 34°14' E 132°14'0 0.0
2018-Apr-11 18:01N 34°14' E 132°14'0 0.0
2018-Apr-11 17:30N 34°14' E 132°14'0 0.0
2018-Apr-11 17:01N 34°14' E 132°14'0 0.0
2018-Apr-11 16:31N 34°14' E 132°14'0 0.0
2018-Apr-11 16:00N 34°14' E 132°14'0 0.0
2018-Apr-11 15:30N 34°14' E 132°14'0 0.1
2018-Apr-11 15:00N 34°14' E 132°14'0 0.0
2018-Apr-11 14:31N 34°14' E 132°14'0 0.0
2018-Apr-11 13:59N 34°14' E 132°14'0 0.0
2018-Apr-11 13:29N 34°14' E 132°14'0 0.0
2018-Apr-11 13:01N 34°14' E 132°14'0 0.0
2018-Apr-11 12:31N 34°14' E 132°14'1 1.2
2018-Apr-11 12:00N 34°14' E 132°15'611.4
2018-Apr-11 11:30N 34°09' E 132°19'611.9
2018-Apr-11 11:01N 34°06' E 132°25'711.1
2018-Apr-11 10:23N 34°03' E 132°33'411.2
2018-Apr-11 10:00N 34°04' E 132°37'  
Track history (hours):
 
Tides and Currents Weather Stations Pressure Air Temp Water Temp Dewpoint Dewpoint Depression Visibility Wind Speed Wind Dir Waves Ship Positions

Nikko Maru No.6

Last reported at 2018-Apr-20 21:59 UTC. Time now 2018-Apr-20 22:06 UTC.
Position N 35°35' E 139°54'.

Length 57 m; draft 2.8 m.

Type: Tanker. MMSI: 431400324.

Date/timePositionNaut miles runAvg speedWind from/ knotsBaromVisibWave heightAir tempDewpointWater temp
2018-Apr-20 21:59N 35°35' E 139°54'0 0.0
2018-Apr-20 21:30N 35°35' E 139°54'0 0.0
2018-Apr-20 21:00N 35°35' E 139°54'0 0.0
2018-Apr-20 20:30N 35°35' E 139°54'0 0.0
2018-Apr-20 20:00N 35°35' E 139°54'0 0.0
2018-Apr-20 19:30N 35°35' E 139°54'0 0.1
2018-Apr-20 18:59N 35°35' E 139°54'0 0.1
2018-Apr-20 18:29N 35°35' E 139°54'0 0.0
2018-Apr-20 18:00N 35°35' E 139°54'0 0.0
2018-Apr-20 17:28N 35°35' E 139°54'0 0.0
2018-Apr-20 17:00N 35°35' E 139°54'0 0.0
2018-Apr-20 16:31N 35°35' E 139°54'0 0.0
2018-Apr-20 16:00N 35°35' E 139°54'0 0.0
2018-Apr-20 15:30N 35°35' E 139°54'0 0.0
2018-Apr-20 15:00N 35°35' E 139°54'0 0.0
2018-Apr-20 14:30N 35°35' E 139°54'0 0.0
2018-Apr-20 14:01N 35°35' E 139°54'0 0.0
2018-Apr-20 13:28N 35°35' E 139°54'0 0.0
2018-Apr-20 12:59N 35°35' E 139°54'0 0.0
2018-Apr-20 12:30N 35°35' E 139°54'0 0.0
2018-Apr-20 12:00N 35°35' E 139°54'0 0.0
2018-Apr-20 11:29N 35°35' E 139°54'0 0.0
2018-Apr-20 11:00N 35°35' E 139°54'0 0.0
2018-Apr-20 10:30N 35°35' E 139°54'2 3.5
2018-Apr-20 10:00N 35°33' E 139°54'611.6
2018-Apr-20 09:30N 35°30' E 139°48'2 4.7
2018-Apr-20 09:00N 35°32' E 139°46'0 0.0
2018-Apr-20 08:30N 35°32' E 139°46'0 0.0
2018-Apr-20 08:00N 35°32' E 139°46'0 0.0
2018-Apr-20 07:30N 35°32' E 139°46'0 0.0
2018-Apr-20 06:58N 35°32' E 139°46'0 0.0
2018-Apr-20 06:30N 35°32' E 139°46'0 0.1
2018-Apr-20 06:00N 35°32' E 139°46'4 7.2
2018-Apr-20 05:31N 35°29' E 139°49'0 0.2
2018-Apr-20 04:57N 35°29' E 139°49'0 0.0
2018-Apr-20 04:29N 35°29' E 139°49'0 0.0
2018-Apr-20 03:57N 35°29' E 139°49'0 0.0
2018-Apr-20 03:29N 35°29' E 139°49'0 0.0
2018-Apr-20 02:59N 35°29' E 139°49'0 0.0
2018-Apr-20 02:26N 35°29' E 139°49'1 2.0
2018-Apr-20 02:01N 35°28' E 139°48'510.8
2018-Apr-20 01:30N 35°23' E 139°46'510.0
2018-Apr-20 01:00N 35°18' E 139°44'5 9.7
2018-Apr-20 00:30N 35°14' E 139°47'510.3
2018-Apr-20 00:00N 35°09' E 139°46'5 9.6
2018-Apr-19 23:30N 35°06' E 139°42'510.8
2018-Apr-19 23:01N 35°02' E 139°37'611.4
2018-Apr-19 22:30N 34°58' E 139°32'612.4
2018-Apr-19 22:00N 34°54' E 139°26'712.0
2018-Apr-19 21:26N 34°50' E 139°20'511.6
2018-Apr-19 20:59N 34°47' E 139°15'711.6
2018-Apr-19 20:22N 34°42' E 139°08'411.6
2018-Apr-19 20:00N 34°40' E 139°04'611.3
2018-Apr-19 19:27N 34°36' E 138°58'611.7
2018-Apr-19 18:58N 34°34' E 138°51'611.9
2018-Apr-19 18:30N 34°33' E 138°44'611.9
2018-Apr-19 17:58N 34°32' E 138°37'7011.6
2018-Apr-19 11:57N 34°32' E 137°13'611.4
2018-Apr-19 11:25N 34°32' E 137°05'510.4
2018-Apr-19 10:58N 34°34' E 136°60'510.7
2018-Apr-19 10:30N 34°37' E 136°55'510.6
2018-Apr-19 10:01N 34°40' E 136°50'611.1
2018-Apr-19 09:30N 34°45' E 136°47'510.9
2018-Apr-19 09:00N 34°50' E 136°44'510.8
2018-Apr-19 08:30N 34°55' E 136°42'4 7.5
2018-Apr-19 08:00N 34°58' E 136°39'0 0.1
2018-Apr-19 07:31N 34°58' E 136°39'0 0.1
2018-Apr-19 07:01N 34°58' E 136°39'0 0.1
2018-Apr-19 06:30N 34°58' E 136°39'0 0.0
2018-Apr-19 06:00N 34°58' E 136°39'0 0.0
2018-Apr-19 05:31N 34°58' E 136°39'0 0.0
2018-Apr-19 05:01N 34°58' E 136°39'0 0.1
2018-Apr-19 04:31N 34°58' E 136°39'5 9.9
2018-Apr-19 03:59N 34°54' E 136°43'612.0
2018-Apr-19 03:31N 34°49' E 136°46'611.6
2018-Apr-19 03:00N 34°44' E 136°50'1011.1
2018-Apr-19 02:08N 34°36' E 136°57'210.9
2018-Apr-19 01:58N 34°35' E 136°59'10 9.9
2018-Apr-19 00:57N 34°32' E 137°10'4911.8
2018-Apr-18 20:50N 34°33' E 138°09'412.2
2018-Apr-18 20:29N 34°33' E 138°15'611.9
2018-Apr-18 19:57N 34°34' E 138°22'911.5
2018-Apr-18 19:09N 34°35' E 138°33'211.8
2018-Apr-18 18:59N 34°35' E 138°36'611.8
2018-Apr-18 18:29N 34°35' E 138°43'611.9
2018-Apr-18 18:00N 34°35' E 138°50'611.3
2018-Apr-18 17:28N 34°37' E 138°57'511.8
2018-Apr-18 17:00N 34°41' E 139°01'711.9
2018-Apr-18 16:23N 34°47' E 139°06'512.6
2018-Apr-18 15:58N 34°51' E 139°10'712.2
2018-Apr-18 15:26N 34°56' E 139°15'511.4
2018-Apr-18 15:00N 34°59' E 139°20'611.3
2018-Apr-18 14:29N 35°01' E 139°27'511.2
2018-Apr-18 14:00N 35°04' E 139°32'612.0
2018-Apr-18 13:31N 35°06' E 139°39'611.5
2018-Apr-18 13:00N 35°10' E 139°44'611.8
2018-Apr-18 12:30N 35°16' E 139°46'612.2
2018-Apr-18 12:00N 35°21' E 139°42'611.4
2018-Apr-18 11:30N 35°26' E 139°45'612.3
2018-Apr-18 11:00N 35°30' E 139°51'612.2
2018-Apr-18 10:30N 35°35' E 139°56'5 9.7
2018-Apr-18 10:00N 35°40' E 139°57'1 1.9
2018-Apr-18 09:26N 35°40' E 139°56'0 0.0
2018-Apr-18 08:33N 35°40' E 139°56'0 0.0
2018-Apr-18 08:18N 35°40' E 139°56'0 0.0
2018-Apr-18 06:52N 35°40' E 139°56'0 0.0
2018-Apr-18 06:23N 35°40' E 139°56'0 0.0
2018-Apr-18 05:54N 35°40' E 139°56'0 0.7
2018-Apr-18 05:30N 35°40' E 139°57'510.0
2018-Apr-18 05:00N 35°36' E 139°58'611.1
2018-Apr-18 04:30N 35°30' E 139°60'3 5.1
2018-Apr-18 04:01N 35°28' E 140°01'0 0.0
2018-Apr-18 03:29N 35°28' E 140°01'0 0.0
2018-Apr-18 03:00N 35°28' E 140°01'0 0.0
2018-Apr-18 02:30N 35°28' E 140°01'0 0.0
2018-Apr-18 02:01N 35°28' E 140°01'0 0.0
2018-Apr-18 01:30N 35°28' E 140°01'0 0.0
2018-Apr-18 01:01N 35°28' E 140°01'0 0.0
2018-Apr-18 00:30N 35°28' E 140°01'0 0.0
2018-Apr-18 00:01N 35°28' E 140°01'0 0.0
2018-Apr-17 23:30N 35°28' E 140°01'0 0.0
2018-Apr-17 23:01N 35°28' E 140°01'2 4.0
2018-Apr-17 22:31N 35°29' E 139°59'1 2.8
2018-Apr-17 22:00N 35°31' E 139°59'511.0
2018-Apr-17 21:31N 35°36' E 139°59'4 6.8
2018-Apr-17 20:52N 35°41' E 139°59'0 0.0
2018-Apr-17 20:30N 35°41' E 139°59'0 0.0
2018-Apr-17 19:58N 35°41' E 139°59'0 0.0
2018-Apr-17 19:25N 35°41' E 139°59'0 0.0
2018-Apr-17 19:00N 35°41' E 139°59'0 0.0
2018-Apr-17 18:25N 35°41' E 139°59'0 0.0
2018-Apr-17 17:59N 35°41' E 139°59'0 0.0
2018-Apr-17 17:29N 35°41' E 139°59'0 0.0
2018-Apr-17 17:00N 35°41' E 139°59'0 0.0
2018-Apr-17 16:30N 35°41' E 139°59'0 0.0
2018-Apr-17 15:57N 35°41' E 139°59'0 0.0
2018-Apr-17 15:30N 35°41' E 139°59'0 0.0
2018-Apr-17 15:00N 35°41' E 139°59'0 0.0
2018-Apr-17 14:30N 35°41' E 139°59'0 0.0
2018-Apr-17 13:59N 35°41' E 139°59'0 0.0
2018-Apr-17 13:30N 35°41' E 139°59'0 0.0
2018-Apr-17 13:00N 35°41' E 139°59'0 0.0
2018-Apr-17 12:30N 35°41' E 139°59'0 0.0
2018-Apr-17 11:59N 35°41' E 139°59'0 0.0
2018-Apr-17 11:29N 35°41' E 139°59'0 0.0
2018-Apr-17 10:58N 35°41' E 139°59'0 0.0
2018-Apr-17 10:21N 35°41' E 139°59'0 0.0
2018-Apr-17 09:30N 35°41' E 139°59'0 0.0
2018-Apr-17 09:00N 35°41' E 139°59'0 0.0
2018-Apr-17 08:30N 35°41' E 139°59'0 0.0
2018-Apr-17 07:39N 35°41' E 139°59'0 0.0
2018-Apr-17 07:30N 35°41' E 139°59'4 7.3
2018-Apr-17 07:00N 35°37' E 139°59'4 8.6
2018-Apr-17 06:30N 35°34' E 140°03'4 7.1
2018-Apr-17 06:00N 35°33' E 140°07'0 0.0
2018-Apr-17 05:30N 35°33' E 140°07'0 0.0
2018-Apr-17 05:00N 35°33' E 140°07'0 0.0
2018-Apr-17 04:30N 35°33' E 140°07'0 0.0
2018-Apr-17 04:00N 35°33' E 140°07'2 3.3
2018-Apr-17 03:31N 35°33' E 140°05'0 0.0
2018-Apr-17 03:00N 35°33' E 140°05'0 0.0
2018-Apr-17 02:30N 35°33' E 140°05'0 0.0
2018-Apr-17 02:00N 35°33' E 140°05'0 0.0
2018-Apr-17 01:30N 35°33' E 140°05'0 0.0
2018-Apr-17 01:00N 35°33' E 140°05'0 0.0
2018-Apr-17 00:30N 35°33' E 140°05'0 0.0
2018-Apr-17 00:00N 35°33' E 140°05'0 0.0
2018-Apr-16 23:30N 35°33' E 140°05'0 0.0
2018-Apr-16 22:57N 35°33' E 140°05'0 0.0
2018-Apr-16 22:30N 35°33' E 140°05'0 0.0
2018-Apr-16 22:00N 35°33' E 140°05'0 0.0
2018-Apr-16 21:30N 35°33' E 140°05'0 0.0
2018-Apr-16 20:57N 35°33' E 140°05'0 0.0
2018-Apr-16 20:30N 35°33' E 140°05'0 0.0
2018-Apr-16 20:00N 35°33' E 140°05'0 0.0
2018-Apr-16 19:27N 35°33' E 140°05'0 0.0
2018-Apr-16 19:00N 35°33' E 140°05'0 0.0
2018-Apr-16 18:30N 35°33' E 140°05'3 5.8
2018-Apr-16 18:00N 35°33' E 140°01'611.4
2018-Apr-16 17:30N 35°30' E 139°56'611.5
2018-Apr-16 17:00N 35°27' E 139°49'611.3
2018-Apr-16 16:30N 35°22' E 139°45'511.0
2018-Apr-16 16:00N 35°17' E 139°46'510.9
2018-Apr-16 15:30N 35°11' E 139°47'611.3
2018-Apr-16 15:00N 35°06' E 139°45'611.3
2018-Apr-16 14:30N 35°02' E 139°39'611.4
2018-Apr-16 14:00N 34°59' E 139°34'612.1
2018-Apr-16 13:29N 34°55' E 139°28'712.5
2018-Apr-16 12:57N 34°51' E 139°21'612.4
2018-Apr-16 12:29N 34°47' E 139°16'611.9
2018-Apr-16 12:00N 34°43' E 139°11'611.5
2018-Apr-16 11:30N 34°40' E 139°05'611.1
2018-Apr-16 11:00N 34°37' E 138°59'611.0
2018-Apr-16 10:26N 34°35' E 138°52'611.5
2018-Apr-16 09:56N 34°34' E 138°45'511.3
2018-Apr-16 09:28N 34°34' E 138°39'18210.0
2018-Apr-15 15:12N 33°49' E 135°06'312.0
2018-Apr-15 14:56N 33°51' E 135°03'512.1
2018-Apr-15 14:30N 33°56' E 135°02'612.0
2018-Apr-15 14:00N 34°02' E 135°02'611.8
2018-Apr-15 13:30N 34°08' E 135°02'611.8
2018-Apr-15 13:00N 34°14' E 135°03'611.8
2018-Apr-15 12:30N 34°20' E 135°05'4 7.7
2018-Apr-15 12:00N 34°21' E 135°09'0 0.0
2018-Apr-15 11:29N 34°21' E 135°09'0 0.0
2018-Apr-15 10:59N 34°21' E 135°09'0 0.0
2018-Apr-15 10:29N 34°21' E 135°09'0 0.0
2018-Apr-15 09:59N 34°21' E 135°09'0 0.1
2018-Apr-15 09:29N 34°21' E 135°09'0 0.0
2018-Apr-15 08:59N 34°21' E 135°09'0 0.0
2018-Apr-15 08:29N 34°21' E 135°09'0 0.1
2018-Apr-15 07:59N 34°21' E 135°09'0 0.0
2018-Apr-15 07:29N 34°21' E 135°09'0 0.0
2018-Apr-15 06:59N 34°21' E 135°09'0 0.0
2018-Apr-15 06:29N 34°21' E 135°09'0 0.0
2018-Apr-15 05:59N 34°21' E 135°09'0 0.0
2018-Apr-15 05:29N 34°21' E 135°09'0 0.0
2018-Apr-15 04:59N 34°21' E 135°09'0 0.0
2018-Apr-15 04:29N 34°21' E 135°09'0 0.0
2018-Apr-15 03:59N 34°21' E 135°09'0 0.0
2018-Apr-15 03:29N 34°21' E 135°09'0 0.0
2018-Apr-15 02:59N 34°21' E 135°09'0 0.0
2018-Apr-15 02:29N 34°21' E 135°09'0 0.1
2018-Apr-15 01:59N 34°21' E 135°09'0 0.0
2018-Apr-15 01:29N 34°21' E 135°09'0 0.0
2018-Apr-15 00:59N 34°21' E 135°09'0 0.0
2018-Apr-15 00:29N 34°21' E 135°09'0 0.0
2018-Apr-14 23:59N 34°21' E 135°09'0 0.0
2018-Apr-14 23:29N 34°21' E 135°09'0 0.0
2018-Apr-14 22:59N 34°21' E 135°09'0 0.0
2018-Apr-14 22:29N 34°21' E 135°09'0 0.0
2018-Apr-14 21:59N 34°21' E 135°09'0 0.0
2018-Apr-14 21:29N 34°21' E 135°09'0 0.0
2018-Apr-14 20:59N 34°21' E 135°09'0 0.0
2018-Apr-14 20:29N 34°21' E 135°09'0 0.0
2018-Apr-14 19:59N 34°21' E 135°09'0 0.0
2018-Apr-14 19:29N 34°21' E 135°09'0 0.0
2018-Apr-14 18:59N 34°21' E 135°09'0 0.0
2018-Apr-14 18:29N 34°21' E 135°09'0 0.0
2018-Apr-14 17:59N 34°22' E 135°09'0 0.1
2018-Apr-14 17:29N 34°22' E 135°09'0 0.0
2018-Apr-14 16:59N 34°22' E 135°09'0 0.0
2018-Apr-14 16:30N 34°22' E 135°09'0 0.0
2018-Apr-14 15:57N 34°22' E 135°09'0 0.0
2018-Apr-14 15:30N 34°22' E 135°09'0 0.0
2018-Apr-14 14:59N 34°21' E 135°09'0 0.0
2018-Apr-14 14:29N 34°21' E 135°09'0 0.0
2018-Apr-14 13:59N 34°21' E 135°09'0 0.0
2018-Apr-14 13:29N 34°21' E 135°09'0 0.0
2018-Apr-14 12:59N 34°21' E 135°09'0 0.1
2018-Apr-14 12:29N 34°21' E 135°09'0 0.0
2018-Apr-14 11:59N 34°21' E 135°09'0 0.1
2018-Apr-14 11:29N 34°21' E 135°09'0 0.0
2018-Apr-14 10:59N 34°21' E 135°09'0 0.0
2018-Apr-14 10:29N 34°21' E 135°09'0 0.0
2018-Apr-14 09:59N 34°21' E 135°09'0 0.0
2018-Apr-14 09:29N 34°21' E 135°09'0 0.0
2018-Apr-14 08:59N 34°21' E 135°09'0 0.0
2018-Apr-14 08:29N 34°21' E 135°09'0 0.0
2018-Apr-14 07:59N 34°21' E 135°09'0 0.0
2018-Apr-14 07:29N 34°21' E 135°09'0 0.0
2018-Apr-14 06:59N 34°21' E 135°09'0 0.0
2018-Apr-14 06:29N 34°21' E 135°09'0 0.1
2018-Apr-14 05:59N 34°21' E 135°09'0 0.0
2018-Apr-14 05:29N 34°21' E 135°09'0 0.0
2018-Apr-14 04:59N 34°21' E 135°09'0 0.0
2018-Apr-14 04:29N 34°21' E 135°09'0 0.1
2018-Apr-14 03:59N 34°21' E 135°09'0 0.0
2018-Apr-14 03:29N 34°21' E 135°09'0 0.1
2018-Apr-14 02:59N 34°21' E 135°09'0 0.9
2018-Apr-14 02:30N 34°22' E 135°09'611.7
2018-Apr-14 02:01N 34°27' E 135°12'611.9
2018-Apr-14 01:30N 34°31' E 135°18'611.5
2018-Apr-14 01:00N 34°33' E 135°24'1 1.1
2018-Apr-14 00:30N 34°34' E 135°25'0 0.0
2018-Apr-14 00:00N 34°34' E 135°25'0 0.6
2018-Apr-13 23:30N 34°33' E 135°25'3 5.2
2018-Apr-13 23:00N 34°33' E 135°22'0 0.2
2018-Apr-13 22:30N 34°32' E 135°22'0 0.0
2018-Apr-13 22:00N 34°32' E 135°22'0 0.0
2018-Apr-13 21:30N 34°32' E 135°22'0 0.0
2018-Apr-13 21:00N 34°32' E 135°22'0 0.0
2018-Apr-13 20:30N 34°33' E 135°22'0 0.0
2018-Apr-13 20:00N 34°33' E 135°22'0 0.0
2018-Apr-13 19:30N 34°32' E 135°22'0 0.0
2018-Apr-13 19:00N 34°32' E 135°22'0 0.0
2018-Apr-13 18:30N 34°32' E 135°22'0 0.0
2018-Apr-13 18:00N 34°32' E 135°22'1 3.0
2018-Apr-13 17:30N 34°33' E 135°20'611.1
2018-Apr-13 17:00N 34°34' E 135°13'611.6
2018-Apr-13 16:30N 34°34' E 135°06'1312.7
2018-Apr-13 15:30N 34°34' E 134°51'612.1
2018-Apr-13 15:00N 34°31' E 134°44'611.5
2018-Apr-13 14:30N 34°29' E 134°38'611.3
2018-Apr-13 14:00N 34°27' E 134°31'511.0
2018-Apr-13 13:30N 34°25' E 134°25'611.2
2018-Apr-13 12:59N 34°24' E 134°18'8210.0
2018-Apr-13 04:49N 34°06' E 132°42'310.3
2018-Apr-13 04:30N 34°04' E 132°38'1810.0
2018-Apr-13 02:42N 34°11' E 132°18'211.3
2018-Apr-13 02:30N 34°12' E 132°16'1 2.2
2018-Apr-13 01:56N 34°13' E 132°15'0 0.0
2018-Apr-13 01:29N 34°13' E 132°15'0 0.0
2018-Apr-13 00:59N 34°13' E 132°15'0 0.0
2018-Apr-13 00:29N 34°13' E 132°15'0 0.0
2018-Apr-12 23:59N 34°13' E 132°15'0 0.0
2018-Apr-12 23:29N 34°13' E 132°15'0 0.0
2018-Apr-12 22:56N 34°13' E 132°15'0 0.4
2018-Apr-12 22:30N 34°13' E 132°15'0 0.3
2018-Apr-12 21:58N 34°13' E 132°15'0 0.0
2018-Apr-12 21:30N 34°13' E 132°15'0 0.0
2018-Apr-12 20:58N 34°13' E 132°15'0 0.0
2018-Apr-12 20:28N 34°13' E 132°15'0 0.0
2018-Apr-12 19:58N 34°13' E 132°15'0 0.0
2018-Apr-12 19:25N 34°13' E 132°15'0 0.0
2018-Apr-12 19:01N 34°13' E 132°15'0 0.0
2018-Apr-12 18:31N 34°13' E 132°15'0 0.0
2018-Apr-12 17:58N 34°13' E 132°15'0 0.0
2018-Apr-12 17:27N 34°13' E 132°15'0 0.0
2018-Apr-12 16:58N 34°13' E 132°15'0 0.0
2018-Apr-12 16:28N 34°13' E 132°15'0 0.0
2018-Apr-12 15:58N 34°13' E 132°15'0 0.0
2018-Apr-12 15:31N 34°13' E 132°15'0 0.0
2018-Apr-12 15:00N 34°13' E 132°15'0 0.0
2018-Apr-12 14:31N 34°13' E 132°15'0 0.0
2018-Apr-12 13:58N 34°13' E 132°15'0 0.0
2018-Apr-12 13:30N 34°13' E 132°15'0 0.0
2018-Apr-12 13:01N 34°13' E 132°15'0 0.0
2018-Apr-12 12:28N 34°13' E 132°15'0 0.0
2018-Apr-12 12:01N 34°13' E 132°15'0 0.0
2018-Apr-12 11:27N 34°13' E 132°15'0 0.0
2018-Apr-12 10:57N 34°13' E 132°15'0 0.0
2018-Apr-12 10:27N 34°13' E 132°15'0 0.0
2018-Apr-12 09:39N 34°13' E 132°15'0 0.0
2018-Apr-12 09:27N 34°13' E 132°15'0 0.0
2018-Apr-12 08:52N 34°13' E 132°15'0 0.0
2018-Apr-12 08:28N 34°13' E 132°15'0 0.0
2018-Apr-12 07:58N 34°13' E 132°15'0 0.0
2018-Apr-12 07:27N 34°13' E 132°15'0 0.0
2018-Apr-12 06:57N 34°13' E 132°15'0 0.0
2018-Apr-12 06:28N 34°13' E 132°15'0 0.0
2018-Apr-12 05:58N 34°13' E 132°15'0 0.0
2018-Apr-12 05:31N 34°13' E 132°15'0 0.0
2018-Apr-12 04:57N 34°13' E 132°15'0 0.0
2018-Apr-12 04:27N 34°13' E 132°15'0 0.0
2018-Apr-12 03:51N 34°13' E 132°15'0 0.0
2018-Apr-12 03:27N 34°13' E 132°15'0 0.6
2018-Apr-12 03:00N 34°13' E 132°15'0 0.0
2018-Apr-12 02:30N 34°13' E 132°15'0 0.0
2018-Apr-12 02:00N 34°13' E 132°15'0 0.1
2018-Apr-12 01:30N 34°13' E 132°15'1 2.2
2018-Apr-12 01:00N 34°14' E 132°14'0 0.0
2018-Apr-12 00:25N 34°14' E 132°14'0 0.0
2018-Apr-11 23:54N 34°14' E 132°14'0 0.0
2018-Apr-11 23:30N 34°14' E 132°14'0 0.0
2018-Apr-11 23:00N 34°14' E 132°14'0 1.0
2018-Apr-11 22:30N 34°14' E 132°14'0 0.0
2018-Apr-11 22:01N 34°14' E 132°14'0 0.0
2018-Apr-11 21:31N 34°14' E 132°14'0 0.0
2018-Apr-11 21:00N 34°14' E 132°14'0 0.0
2018-Apr-11 20:30N 34°14' E 132°14'0 0.0
2018-Apr-11 20:00N 34°14' E 132°14'0 0.0
2018-Apr-11 19:30N 34°14' E 132°14'0 0.0
2018-Apr-11 19:00N 34°14' E 132°14'0 0.0
2018-Apr-11 18:30N 34°14' E 132°14'0 0.0
2018-Apr-11 18:01N 34°14' E 132°14'0 0.0
2018-Apr-11 17:30N 34°14' E 132°14'0 0.0
2018-Apr-11 17:01N 34°14' E 132°14'0 0.0
2018-Apr-11 16:31N 34°14' E 132°14'0 0.0
2018-Apr-11 16:00N 34°14' E 132°14'0 0.0
2018-Apr-11 15:30N 34°14' E 132°14'0 0.1
2018-Apr-11 15:00N 34°14' E 132°14'0 0.0
2018-Apr-11 14:31N 34°14' E 132°14'0 0.0
2018-Apr-11 13:59N 34°14' E 132°14'0 0.0
2018-Apr-11 13:29N 34°14' E 132°14'0 0.0
2018-Apr-11 13:01N 34°14' E 132°14'0 0.0
2018-Apr-11 12:31N 34°14' E 132°14'1 1.2
2018-Apr-11 12:00N 34°14' E 132°15'611.4
2018-Apr-11 11:30N 34°09' E 132°19'611.9
2018-Apr-11 11:01N 34°06' E 132°25'711.1
2018-Apr-11 10:23N 34°03' E 132°33'411.2
2018-Apr-11 10:00N 34°04' E 132°37'  

Dump ship's entire track history